sensor_id;sensor_type;location;lat;lon;timestamp;temperature;humidity
72380;SHT30;60354;47.798;12.472;2023-03-01T00:01:09;0.96;83.68
72380;SHT30;60354;47.798;12.472;2023-03-01T00:03:35;0.93;84.06
72380;SHT30;60354;47.798;12.472;2023-03-01T00:06:02;0.95;83.76
72380;SHT30;60354;47.798;12.472;2023-03-01T00:08:28;0.90;83.80
72380;SHT30;60354;47.798;12.472;2023-03-01T00:11:13;0.93;84.04
72380;SHT30;60354;47.798;12.472;2023-03-01T00:13:40;0.90;84.25
72380;SHT30;60354;47.798;12.472;2023-03-01T00:16:07;0.95;84.20
72380;SHT30;60354;47.798;12.472;2023-03-01T00:18:34;0.92;84.15
72380;SHT30;60354;47.798;12.472;2023-03-01T00:21:00;0.97;84.01
72380;SHT30;60354;47.798;12.472;2023-03-01T00:23:26;0.96;84.29
72380;SHT30;60354;47.798;12.472;2023-03-01T00:25:52;0.96;84.49
72380;SHT30;60354;47.798;12.472;2023-03-01T00:28:18;0.97;84.24
72380;SHT30;60354;47.798;12.472;2023-03-01T00:30:45;0.93;84.45
72380;SHT30;60354;47.798;12.472;2023-03-01T00:33:10;0.90;84.42
72380;SHT30;60354;47.798;12.472;2023-03-01T00:35:36;0.85;84.73
72380;SHT30;60354;47.798;12.472;2023-03-01T00:38:02;0.86;84.62
72380;SHT30;60354;47.798;12.472;2023-03-01T00:40:31;0.85;84.59
72380;SHT30;60354;47.798;12.472;2023-03-01T00:42:57;0.80;84.73
72380;SHT30;60354;47.798;12.472;2023-03-01T00:45:23;0.79;85.07
72380;SHT30;60354;47.798;12.472;2023-03-01T00:47:54;0.70;85.34
72380;SHT30;60354;47.798;12.472;2023-03-01T00:50:49;0.72;85.10
72380;SHT30;60354;47.798;12.472;2023-03-01T00:53:45;0.75;84.75
72380;SHT30;60354;47.798;12.472;2023-03-01T01:00:32;0.69;85.13
72380;SHT30;60354;47.798;12.472;2023-03-01T01:06:11;0.79;84.85
72380;SHT30;60354;47.798;12.472;2023-03-01T01:08:50;0.83;84.78
72380;SHT30;60354;47.798;12.472;2023-03-01T01:11:26;0.89;84.74
72380;SHT30;60354;47.798;12.472;2023-03-01T01:14:24;0.92;84.83
72380;SHT30;60354;47.798;12.472;2023-03-01T01:16:55;0.93;84.65
72380;SHT30;60354;47.798;12.472;2023-03-01T01:20:09;0.93;84.76
72380;SHT30;60354;47.798;12.472;2023-03-01T01:22:53;0.80;84.91
72380;SHT30;60354;47.798;12.472;2023-03-01T01:25:54;0.83;84.70
72380;SHT30;60354;47.798;12.472;2023-03-01T01:28:52;0.82;84.63
72380;SHT30;60354;47.798;12.472;2023-03-01T01:31:49;0.77;84.82
72380;SHT30;60354;47.798;12.472;2023-03-01T01:34:20;0.73;85.11
72380;SHT30;60354;47.798;12.472;2023-03-01T01:36:54;0.73;85.11
72380;SHT30;60354;47.798;12.472;2023-03-01T01:39:38;0.73;85.23
72380;SHT30;60354;47.798;12.472;2023-03-01T01:42:32;0.79;84.98
72380;SHT30;60354;47.798;12.472;2023-03-01T01:51:16;0.61;83.53
72380;SHT30;60354;47.798;12.472;2023-03-01T01:54:02;0.56;83.83
72380;SHT30;60354;47.798;12.472;2023-03-01T01:56:31;0.52;83.86
72380;SHT30;60354;47.798;12.472;2023-03-01T01:59:22;0.51;83.75
72380;SHT30;60354;47.798;12.472;2023-03-01T02:09:27;0.45;83.80
72380;SHT30;60354;47.798;12.472;2023-03-01T02:12:13;0.45;84.48
72380;SHT30;60354;47.798;12.472;2023-03-01T02:14:58;0.44;85.02
72380;SHT30;60354;47.798;12.472;2023-03-01T02:17:33;0.37;85.19
72380;SHT30;60354;47.798;12.472;2023-03-01T02:20:18;0.40;85.29
72380;SHT30;60354;47.798;12.472;2023-03-01T02:23:17;0.41;85.17
72380;SHT30;60354;47.798;12.472;2023-03-01T02:28:56;0.37;85.01
72380;SHT30;60354;47.798;12.472;2023-03-01T02:31:29;0.45;84.77
72380;SHT30;60354;47.798;12.472;2023-03-01T02:34:32;0.49;84.17
72380;SHT30;60354;47.798;12.472;2023-03-01T02:37:14;0.55;84.08
72380;SHT30;60354;47.798;12.472;2023-03-01T02:39:51;0.55;83.45
72380;SHT30;60354;47.798;12.472;2023-03-01T02:46:14;0.66;83.35
72380;SHT30;60354;47.798;12.472;2023-03-01T02:49:18;0.69;82.85
72380;SHT30;60354;47.798;12.472;2023-03-01T02:54:56;0.75;82.40
72380;SHT30;60354;47.798;12.472;2023-03-01T02:57:31;0.62;82.55
72380;SHT30;60354;47.798;12.472;2023-03-01T03:00:05;0.59;82.59
72380;SHT30;60354;47.798;12.472;2023-03-01T03:03:00;0.51;82.87
72380;SHT30;60354;47.798;12.472;2023-03-01T03:05:31;0.29;83.21
72380;SHT30;60354;47.798;12.472;2023-03-01T03:08:01;0.22;83.15
72380;SHT30;60354;47.798;12.472;2023-03-01T03:10:51;0.19;83.16
72380;SHT30;60354;47.798;12.472;2023-03-01T03:13:29;0.15;83.06
72380;SHT30;60354;47.798;12.472;2023-03-01T03:15:57;0.18;83.29
72380;SHT30;60354;47.798;12.472;2023-03-01T03:18:32;0.15;83.05
72380;SHT30;60354;47.798;12.472;2023-03-01T03:20:57;0.17;83.00
72380;SHT30;60354;47.798;12.472;2023-03-01T03:23:25;0.18;83.20
72380;SHT30;60354;47.798;12.472;2023-03-01T03:25:53;0.14;82.87
72380;SHT30;60354;47.798;12.472;2023-03-01T03:28:19;0.07;83.03
72380;SHT30;60354;47.798;12.472;2023-03-01T03:30:53;0.08;83.23
72380;SHT30;60354;47.798;12.472;2023-03-01T03:33:21;0.17;83.14
72380;SHT30;60354;47.798;12.472;2023-03-01T03:35:49;0.11;82.81
72380;SHT30;60354;47.798;12.472;2023-03-01T03:38:19;0.19;82.65
72380;SHT30;60354;47.798;12.472;2023-03-01T03:40:50;0.15;82.30
72380;SHT30;60354;47.798;12.472;2023-03-01T03:43:19;0.17;82.24
72380;SHT30;60354;47.798;12.472;2023-03-01T03:45:49;0.22;82.31
72380;SHT30;60354;47.798;12.472;2023-03-01T03:48:30;0.25;82.15
72380;SHT30;60354;47.798;12.472;2023-03-01T03:50:56;0.29;81.54
72380;SHT30;60354;47.798;12.472;2023-03-01T03:53:31;0.25;81.80
72380;SHT30;60354;47.798;12.472;2023-03-01T03:55:59;0.25;81.60
72380;SHT30;60354;47.798;12.472;2023-03-01T03:58:25;0.32;81.68
72380;SHT30;60354;47.798;12.472;2023-03-01T04:00:53;0.32;81.79
72380;SHT30;60354;47.798;12.472;2023-03-01T04:03:25;0.37;81.76
72380;SHT30;60354;47.798;12.472;2023-03-01T04:05:59;0.41;82.07
72380;SHT30;60354;47.798;12.472;2023-03-01T04:08:25;0.48;82.10
72380;SHT30;60354;47.798;12.472;2023-03-01T04:11:02;0.48;81.76
72380;SHT30;60354;47.798;12.472;2023-03-01T04:13:48;0.34;81.80
72380;SHT30;60354;47.798;12.472;2023-03-01T04:16:17;0.40;81.57
72380;SHT30;60354;47.798;12.472;2023-03-01T04:18:43;0.26;81.39
72380;SHT30;60354;47.798;12.472;2023-03-01T04:21:09;0.31;81.52
72380;SHT30;60354;47.798;12.472;2023-03-01T04:23:37;0.34;81.72
72380;SHT30;60354;47.798;12.472;2023-03-01T04:26:06;0.31;81.76
72380;SHT30;60354;47.798;12.472;2023-03-01T04:28:37;0.19;82.59
72380;SHT30;60354;47.798;12.472;2023-03-01T04:31:06;0.24;82.16
72380;SHT30;60354;47.798;12.472;2023-03-01T04:36:08;0.21;81.72
72380;SHT30;60354;47.798;12.472;2023-03-01T04:38:35;0.17;81.67
72380;SHT30;60354;47.798;12.472;2023-03-01T04:41:09;0.17;82.05
72380;SHT30;60354;47.798;12.472;2023-03-01T04:43:35;0.15;82.16
72380;SHT30;60354;47.798;12.472;2023-03-01T04:46:05;0.17;81.45
72380;SHT30;60354;47.798;12.472;2023-03-01T04:48:35;0.11;82.28
72380;SHT30;60354;47.798;12.472;2023-03-01T04:51:01;0.03;81.98
72380;SHT30;60354;47.798;12.472;2023-03-01T04:53:28;0.07;82.35
72380;SHT30;60354;47.798;12.472;2023-03-01T04:55:55;0.07;82.31
72380;SHT30;60354;47.798;12.472;2023-03-01T04:58:25;0.07;81.50
72380;SHT30;60354;47.798;12.472;2023-03-01T05:00:52;-0.03;82.31
72380;SHT30;60354;47.798;12.472;2023-03-01T05:03:17;0.00;82.69
72380;SHT30;60354;47.798;12.472;2023-03-01T05:05:45;-0.05;82.42
72380;SHT30;60354;47.798;12.472;2023-03-01T05:08:11;0.04;82.43
72380;SHT30;60354;47.798;12.472;2023-03-01T05:10:52;0.07;82.40
72380;SHT30;60354;47.798;12.472;2023-03-01T05:13:19;0.14;82.09
72380;SHT30;60354;47.798;12.472;2023-03-01T05:15:56;0.14;82.07
72380;SHT30;60354;47.798;12.472;2023-03-01T05:18:23;0.18;82.06
72380;SHT30;60354;47.798;12.472;2023-03-01T05:21:04;0.15;82.05
72380;SHT30;60354;47.798;12.472;2023-03-01T05:23:31;0.13;82.04
72380;SHT30;60354;47.798;12.472;2023-03-01T05:25:58;0.07;81.84
72380;SHT30;60354;47.798;12.472;2023-03-01T05:28:25;0.00;82.01
72380;SHT30;60354;47.798;12.472;2023-03-01T05:30:51;-0.06;82.07
72380;SHT30;60354;47.798;12.472;2023-03-01T05:33:17;-0.11;82.48
72380;SHT30;60354;47.798;12.472;2023-03-01T05:35:43;-0.23;82.58
72380;SHT30;60354;47.798;12.472;2023-03-01T05:38:13;-0.26;82.22
72380;SHT30;60354;47.798;12.472;2023-03-01T05:40:39;-0.06;82.31
72380;SHT30;60354;47.798;12.472;2023-03-01T05:43:05;-0.18;82.17
72380;SHT30;60354;47.798;12.472;2023-03-01T05:45:31;-0.34;82.83
72380;SHT30;60354;47.798;12.472;2023-03-01T05:47:59;-0.36;82.71
72380;SHT30;60354;47.798;12.472;2023-03-01T05:50:27;-0.45;83.04
72380;SHT30;60354;47.798;12.472;2023-03-01T05:53:02;-0.48;83.00
72380;SHT30;60354;47.798;12.472;2023-03-01T05:55:29;-0.57;83.41
72380;SHT30;60354;47.798;12.472;2023-03-01T05:57:55;-0.51;83.80
72380;SHT30;60354;47.798;12.472;2023-03-01T06:00:21;-0.50;83.72
72380;SHT30;60354;47.798;12.472;2023-03-01T06:02:50;-0.36;83.59
72380;SHT30;60354;47.798;12.472;2023-03-01T06:05:17;-0.31;83.24
72380;SHT30;60354;47.798;12.472;2023-03-01T06:07:43;-0.34;82.96
72380;SHT30;60354;47.798;12.472;2023-03-01T06:10:11;-0.36;82.77
72380;SHT30;60354;47.798;12.472;2023-03-01T06:12:38;-0.45;82.77
72380;SHT30;60354;47.798;12.472;2023-03-01T06:15:05;-0.45;82.96
72380;SHT30;60354;47.798;12.472;2023-03-01T06:17:34;-0.42;83.11
72380;SHT30;60354;47.798;12.472;2023-03-01T06:20:07;-0.42;83.00
72380;SHT30;60354;47.798;12.472;2023-03-01T06:22:33;-0.47;83.14
72380;SHT30;60354;47.798;12.472;2023-03-01T06:24:59;-0.38;83.07
72380;SHT30;60354;47.798;12.472;2023-03-01T06:27:24;-0.33;82.83
72380;SHT30;60354;47.798;12.472;2023-03-01T06:29:50;-0.31;82.86
72380;SHT30;60354;47.798;12.472;2023-03-01T06:32:16;-0.30;82.63
72380;SHT30;60354;47.798;12.472;2023-03-01T06:34:41;-0.20;82.26
72380;SHT30;60354;47.798;12.472;2023-03-01T06:37:07;-0.13;82.22
72380;SHT30;60354;47.798;12.472;2023-03-01T06:39:33;-0.07;81.72
72380;SHT30;60354;47.798;12.472;2023-03-01T06:41:58;-0.14;81.56
72380;SHT30;60354;47.798;12.472;2023-03-01T06:44:24;-0.17;81.95
72380;SHT30;60354;47.798;12.472;2023-03-01T06:46:49;-0.24;81.97
72380;SHT30;60354;47.798;12.472;2023-03-01T06:49:15;-0.42;82.78
72380;SHT30;60354;47.798;12.472;2023-03-01T06:51:43;-0.26;83.04
72380;SHT30;60354;47.798;12.472;2023-03-01T06:54:09;-0.31;82.36
72380;SHT30;60354;47.798;12.472;2023-03-01T06:56:35;-0.36;82.67
72380;SHT30;60354;47.798;12.472;2023-03-01T06:59:00;-0.21;82.11
72380;SHT30;60354;47.798;12.472;2023-03-01T07:01:28;-0.16;82.04
72380;SHT30;60354;47.798;12.472;2023-03-01T07:03:54;-0.10;81.70
72380;SHT30;60354;47.798;12.472;2023-03-01T07:06:19;-0.03;81.74
72380;SHT30;60354;47.798;12.472;2023-03-01T07:08:45;0.00;81.71
72380;SHT30;60354;47.798;12.472;2023-03-01T07:11:10;0.01;81.29
72380;SHT30;60354;47.798;12.472;2023-03-01T07:13:36;0.07;80.83
72380;SHT30;60354;47.798;12.472;2023-03-01T07:16:01;0.04;81.27
72380;SHT30;60354;47.798;12.472;2023-03-01T07:18:27;0.15;81.19
72380;SHT30;60354;47.798;12.472;2023-03-01T07:20:52;0.11;80.59
72380;SHT30;60354;47.798;12.472;2023-03-01T07:23:18;0.18;80.50
72380;SHT30;60354;47.798;12.472;2023-03-01T07:25:44;0.18;80.41
72380;SHT30;60354;47.798;12.472;2023-03-01T07:28:09;0.11;80.78
72380;SHT30;60354;47.798;12.472;2023-03-01T07:30:35;0.04;81.07
72380;SHT30;60354;47.798;12.472;2023-03-01T07:33:00;0.00;81.04
72380;SHT30;60354;47.798;12.472;2023-03-01T07:35:27;-0.05;81.14
72380;SHT30;60354;47.798;12.472;2023-03-01T07:37:52;-0.11;81.16
72380;SHT30;60354;47.798;12.472;2023-03-01T07:40:18;0.03;81.67
72380;SHT30;60354;47.798;12.472;2023-03-01T07:42:44;0.07;80.45
72380;SHT30;60354;47.798;12.472;2023-03-01T07:45:10;0.03;81.10
72380;SHT30;60354;47.798;12.472;2023-03-01T07:47:36;0.04;81.18
72380;SHT30;60354;47.798;12.472;2023-03-01T07:50:02;-0.02;81.27
72380;SHT30;60354;47.798;12.472;2023-03-01T07:52:29;-0.02;81.52
72380;SHT30;60354;47.798;12.472;2023-03-01T07:54:56;0.08;81.13
72380;SHT30;60354;47.798;12.472;2023-03-01T07:57:21;0.15;81.09
72380;SHT30;60354;47.798;12.472;2023-03-01T07:59:46;0.18;80.75
72380;SHT30;60354;47.798;12.472;2023-03-01T08:02:12;0.26;80.40
72380;SHT30;60354;47.798;12.472;2023-03-01T08:04:38;0.40;80.27
72380;SHT30;60354;47.798;12.472;2023-03-01T08:07:05;0.37;79.91
72380;SHT30;60354;47.798;12.472;2023-03-01T08:09:31;0.46;79.54
72380;SHT30;60354;47.798;12.472;2023-03-01T08:11:57;0.51;79.59
72380;SHT30;60354;47.798;12.472;2023-03-01T08:14:25;0.46;79.46
72380;SHT30;60354;47.798;12.472;2023-03-01T08:16:50;0.51;79.52
72380;SHT30;60354;47.798;12.472;2023-03-01T08:19:16;0.62;78.95
72380;SHT30;60354;47.798;12.472;2023-03-01T08:21:42;0.69;78.83
72380;SHT30;60354;47.798;12.472;2023-03-01T08:24:08;0.80;78.57
72380;SHT30;60354;47.798;12.472;2023-03-01T08:26:36;0.85;78.67
72380;SHT30;60354;47.798;12.472;2023-03-01T08:29:02;0.89;78.27
72380;SHT30;60354;47.798;12.472;2023-03-01T08:31:34;0.90;78.35
72380;SHT30;60354;47.798;12.472;2023-03-01T08:34:08;1.07;78.20
72380;SHT30;60354;47.798;12.472;2023-03-01T08:36:37;1.12;78.01
72380;SHT30;60354;47.798;12.472;2023-03-01T08:39:03;1.14;77.87
72380;SHT30;60354;47.798;12.472;2023-03-01T08:41:29;1.07;77.52
72380;SHT30;60354;47.798;12.472;2023-03-01T08:43:55;1.00;77.63
72380;SHT30;60354;47.798;12.472;2023-03-01T08:46:28;0.93;77.98
72380;SHT30;60354;47.798;12.472;2023-03-01T08:48:54;1.19;77.81
72380;SHT30;60354;47.798;12.472;2023-03-01T08:51:20;1.12;77.56
72380;SHT30;60354;47.798;12.472;2023-03-01T08:53:46;1.22;77.57
72380;SHT30;60354;47.798;12.472;2023-03-01T08:56:13;1.30;77.38
72380;SHT30;60354;47.798;12.472;2023-03-01T08:58:38;1.44;76.24
72380;SHT30;60354;47.798;12.472;2023-03-01T09:01:11;1.48;76.72
72380;SHT30;60354;47.798;12.472;2023-03-01T09:03:37;1.40;76.56
72380;SHT30;60354;47.798;12.472;2023-03-01T09:06:05;1.48;76.90
72380;SHT30;60354;47.798;12.472;2023-03-01T09:08:31;1.65;76.64
72380;SHT30;60354;47.798;12.472;2023-03-01T09:11:04;1.74;75.72
72380;SHT30;60354;47.798;12.472;2023-03-01T09:13:30;1.83;75.99
72380;SHT30;60354;47.798;12.472;2023-03-01T09:16:00;1.88;75.41
72380;SHT30;60354;47.798;12.472;2023-03-01T09:18:26;1.72;75.77
72380;SHT30;60354;47.798;12.472;2023-03-01T09:20:52;1.69;75.99
72380;SHT30;60354;47.798;12.472;2023-03-01T09:23:20;1.71;75.67
72380;SHT30;60354;47.798;12.472;2023-03-01T09:25:46;1.99;75.36
72380;SHT30;60354;47.798;12.472;2023-03-01T09:28:12;2.02;75.40
72380;SHT30;60354;47.798;12.472;2023-03-01T09:30:37;1.83;75.02
72380;SHT30;60354;47.798;12.472;2023-03-01T09:33:03;2.05;75.01
72380;SHT30;60354;47.798;12.472;2023-03-01T09:35:28;1.91;75.45
72380;SHT30;60354;47.798;12.472;2023-03-01T09:37:54;1.86;75.12
72380;SHT30;60354;47.798;12.472;2023-03-01T09:40:22;2.02;75.10
72380;SHT30;60354;47.798;12.472;2023-03-01T09:45:41;2.17;75.09
72380;SHT30;60354;47.798;12.472;2023-03-01T09:48:16;2.29;75.43
72380;SHT30;60354;47.798;12.472;2023-03-01T09:50:43;2.64;73.68
72380;SHT30;60354;47.798;12.472;2023-03-01T09:53:17;2.37;73.80
72380;SHT30;60354;47.798;12.472;2023-03-01T09:56:05;2.29;74.42
72380;SHT30;60354;47.798;12.472;2023-03-01T10:09:33;2.44;73.85
72380;SHT30;60354;47.798;12.472;2023-03-01T10:12:01;2.51;73.87
72380;SHT30;60354;47.798;12.472;2023-03-01T10:14:41;2.51;73.40
72380;SHT30;60354;47.798;12.472;2023-03-01T10:17:12;2.65;73.62
72380;SHT30;60354;47.798;12.472;2023-03-01T10:19:43;2.61;73.87
72380;SHT30;60354;47.798;12.472;2023-03-01T10:22:16;2.83;73.84
72380;SHT30;60354;47.798;12.472;2023-03-01T10:24:42;2.76;72.68
72380;SHT30;60354;47.798;12.472;2023-03-01T10:27:22;2.67;72.85
72380;SHT30;60354;47.798;12.472;2023-03-01T10:32:42;3.02;72.38
72380;SHT30;60354;47.798;12.472;2023-03-01T10:38:04;3.15;71.41
72380;SHT30;60354;47.798;12.472;2023-03-01T10:40:30;2.89;71.60
72380;SHT30;60354;47.798;12.472;2023-03-01T10:43:04;2.98;72.11
72380;SHT30;60354;47.798;12.472;2023-03-01T10:45:38;2.89;72.96
72380;SHT30;60354;47.798;12.472;2023-03-01T10:50:40;2.58;73.80
72380;SHT30;60354;47.798;12.472;2023-03-01T10:53:29;2.32;74.91
72380;SHT30;60354;47.798;12.472;2023-03-01T10:58:33;2.37;74.55
72380;SHT30;60354;47.798;12.472;2023-03-01T11:01:24;2.36;75.05
72380;SHT30;60354;47.798;12.472;2023-03-01T11:06:33;2.46;74.68
72380;SHT30;60354;47.798;12.472;2023-03-01T11:09:22;2.36;74.90
72380;SHT30;60354;47.798;12.472;2023-03-01T11:11:57;2.37;74.27
72380;SHT30;60354;47.798;12.472;2023-03-01T11:16:58;2.26;74.66
72380;SHT30;60354;47.798;12.472;2023-03-01T11:19:25;2.25;75.20
72380;SHT30;60354;47.798;12.472;2023-03-01T11:21:59;2.09;75.47
72380;SHT30;60354;47.798;12.472;2023-03-01T11:24:34;1.85;76.06
72380;SHT30;60354;47.798;12.472;2023-03-01T11:27:03;1.99;75.52
72380;SHT30;60354;47.798;12.472;2023-03-01T11:29:35;2.10;76.02
72380;SHT30;60354;47.798;12.472;2023-03-01T11:32:04;2.15;76.01
72380;SHT30;60354;47.798;12.472;2023-03-01T11:35:27;2.10;76.23
72380;SHT30;60354;47.798;12.472;2023-03-01T12:05:11;2.29;75.22
72380;SHT30;60354;47.798;12.472;2023-03-01T12:45:58;3.32;73.72
72380;SHT30;60354;47.798;12.472;2023-03-01T12:51:09;3.29;73.40
72380;SHT30;60354;47.798;12.472;2023-03-01T12:53:41;3.56;72.59
72380;SHT30;60354;47.798;12.472;2023-03-01T12:56:11;3.42;72.64
72380;SHT30;60354;47.798;12.472;2023-03-01T12:59:07;3.30;72.85
72380;SHT30;60354;47.798;12.472;2023-03-01T13:05:00;3.66;72.58
72380;SHT30;60354;47.798;12.472;2023-03-01T13:18:27;3.60;73.06
72380;SHT30;60354;47.798;12.472;2023-03-01T13:20:52;3.62;72.30
72380;SHT30;60354;47.798;12.472;2023-03-01T13:30:58;3.56;72.79
72380;SHT30;60354;47.798;12.472;2023-03-01T13:35:52;3.55;73.37
72380;SHT30;60354;47.798;12.472;2023-03-01T13:41:03;3.15;73.81
72380;SHT30;60354;47.798;12.472;2023-03-01T13:43:37;3.12;74.09
72380;SHT30;60354;47.798;12.472;2023-03-01T13:46:23;3.22;74.34
72380;SHT30;60354;47.798;12.472;2023-03-01T13:48:52;3.18;74.65
72380;SHT30;60354;47.798;12.472;2023-03-01T13:51:26;3.05;74.49
72380;SHT30;60354;47.798;12.472;2023-03-01T13:53:55;3.04;75.06
72380;SHT30;60354;47.798;12.472;2023-03-01T13:56:36;3.22;74.78
72380;SHT30;60354;47.798;12.472;2023-03-01T13:59:16;3.15;74.50
72380;SHT30;60354;47.798;12.472;2023-03-01T14:01:42;3.18;74.63
72380;SHT30;60354;47.798;12.472;2023-03-01T14:04:29;3.18;74.88
72380;SHT30;60354;47.798;12.472;2023-03-01T14:07:19;3.20;74.91
72380;SHT30;60354;47.798;12.472;2023-03-01T14:09:47;3.52;74.71
72380;SHT30;60354;47.798;12.472;2023-03-01T14:19:48;3.80;73.53
72380;SHT30;60354;47.798;12.472;2023-03-01T14:22:28;3.86;73.11
72380;SHT30;60354;47.798;12.472;2023-03-01T14:24:56;3.77;73.64
72380;SHT30;60354;47.798;12.472;2023-03-01T14:27:26;3.74;73.79
72380;SHT30;60354;47.798;12.472;2023-03-01T14:29:58;3.87;73.20
72380;SHT30;60354;47.798;12.472;2023-03-01T14:32:27;3.97;72.95
72380;SHT30;60354;47.798;12.472;2023-03-01T14:34:54;3.73;73.02
72380;SHT30;60354;47.798;12.472;2023-03-01T14:39:52;3.67;73.25
72380;SHT30;60354;47.798;12.472;2023-03-01T14:42:19;3.44;73.61
72380;SHT30;60354;47.798;12.472;2023-03-01T14:44:48;3.49;73.62
72380;SHT30;60354;47.798;12.472;2023-03-01T14:47:22;3.63;73.32
72380;SHT30;60354;47.798;12.472;2023-03-01T14:49:56;3.55;73.19
72380;SHT30;60354;47.798;12.472;2023-03-01T14:52:29;3.76;72.42
72380;SHT30;60354;47.798;12.472;2023-03-01T14:54:56;3.88;72.37
72380;SHT30;60354;47.798;12.472;2023-03-01T14:57:24;3.88;72.43
72380;SHT30;60354;47.798;12.472;2023-03-01T14:59:53;3.97;73.15
72380;SHT30;60354;47.798;12.472;2023-03-01T15:02:23;3.94;73.46
72380;SHT30;60354;47.798;12.472;2023-03-01T15:04:55;3.95;73.79
72380;SHT30;60354;47.798;12.472;2023-03-01T15:07:29;3.91;73.55
72380;SHT30;60354;47.798;12.472;2023-03-01T15:09:55;3.95;73.53
72380;SHT30;60354;47.798;12.472;2023-03-01T15:12:34;3.94;73.11
72380;SHT30;60354;47.798;12.472;2023-03-01T15:15:00;3.97;73.46
72380;SHT30;60354;47.798;12.472;2023-03-01T15:17:35;3.90;73.60
72380;SHT30;60354;47.798;12.472;2023-03-01T15:20:13;3.86;73.58
72380;SHT30;60354;47.798;12.472;2023-03-01T15:22:44;3.86;73.45
72380;SHT30;60354;47.798;12.472;2023-03-01T15:25:18;3.83;74.08
72380;SHT30;60354;47.798;12.472;2023-03-01T15:27:46;3.79;74.02
72380;SHT30;60354;47.798;12.472;2023-03-01T15:32:45;3.81;74.42
72380;SHT30;60354;47.798;12.472;2023-03-01T15:37:58;3.79;74.66
72380;SHT30;60354;47.798;12.472;2023-03-01T15:40:26;3.73;74.74
72380;SHT30;60354;47.798;12.472;2023-03-01T15:42:59;3.70;74.45
72380;SHT30;60354;47.798;12.472;2023-03-01T15:45:28;3.62;74.89
72380;SHT30;60354;47.798;12.472;2023-03-01T15:47:58;3.64;76.37
72380;SHT30;60354;47.798;12.472;2023-03-01T15:50:32;3.88;75.30
72380;SHT30;60354;47.798;12.472;2023-03-01T15:53:01;3.86;75.46
72380;SHT30;60354;47.798;12.472;2023-03-01T15:55:29;3.76;74.78
72380;SHT30;60354;47.798;12.472;2023-03-01T16:00:41;3.87;76.16
72380;SHT30;60354;47.798;12.472;2023-03-01T16:03:08;3.86;75.69
72380;SHT30;60354;47.798;12.472;2023-03-01T16:05:37;3.88;74.86
72380;SHT30;60354;47.798;12.472;2023-03-01T16:08:04;3.84;74.65
72380;SHT30;60354;47.798;12.472;2023-03-01T16:10:31;3.50;76.20
72380;SHT30;60354;47.798;12.472;2023-03-01T16:12:58;3.43;76.33
72380;SHT30;60354;47.798;12.472;2023-03-01T16:15:30;3.59;76.54
72380;SHT30;60354;47.798;12.472;2023-03-01T16:17:57;3.55;76.64
72380;SHT30;60354;47.798;12.472;2023-03-01T16:20:24;3.64;77.00
72380;SHT30;60354;47.798;12.472;2023-03-01T16:22:49;3.71;76.25
72380;SHT30;60354;47.798;12.472;2023-03-01T16:25:17;3.62;75.59
72380;SHT30;60354;47.798;12.472;2023-03-01T16:27:44;3.69;76.19
72380;SHT30;60354;47.798;12.472;2023-03-01T16:30:11;3.70;75.87
72380;SHT30;60354;47.798;12.472;2023-03-01T16:32:41;3.62;76.29
72380;SHT30;60354;47.798;12.472;2023-03-01T16:35:10;3.64;76.80
72380;SHT30;60354;47.798;12.472;2023-03-01T16:37:36;3.67;76.77
72380;SHT30;60354;47.798;12.472;2023-03-01T16:40:04;3.38;77.47
72380;SHT30;60354;47.798;12.472;2023-03-01T16:42:36;3.13;78.94
72380;SHT30;60354;47.798;12.472;2023-03-01T16:45:06;2.87;80.07
72380;SHT30;60354;47.798;12.472;2023-03-01T16:47:33;2.99;80.21
72380;SHT30;60354;47.798;12.472;2023-03-01T16:49:59;3.07;80.05
72380;SHT30;60354;47.798;12.472;2023-03-01T16:52:24;3.12;79.09
72380;SHT30;60354;47.798;12.472;2023-03-01T16:54:49;3.13;79.11
72380;SHT30;60354;47.798;12.472;2023-03-01T16:57:15;3.08;78.83
72380;SHT30;60354;47.798;12.472;2023-03-01T16:59:41;2.83;79.15
72380;SHT30;60354;47.798;12.472;2023-03-01T17:02:10;2.87;79.58
72380;SHT30;60354;47.798;12.472;2023-03-01T17:04:36;2.70;79.92
72380;SHT30;60354;47.798;12.472;2023-03-01T17:07:02;2.78;79.45
72380;SHT30;60354;47.798;12.472;2023-03-01T17:09:27;2.84;79.71
72380;SHT30;60354;47.798;12.472;2023-03-01T17:11:53;2.81;79.83
72380;SHT30;60354;47.798;12.472;2023-03-01T17:14:19;2.87;79.46
72380;SHT30;60354;47.798;12.472;2023-03-01T17:16:44;2.88;79.15
72380;SHT30;60354;47.798;12.472;2023-03-01T17:19:10;2.43;81.09
72380;SHT30;60354;47.798;12.472;2023-03-01T17:21:36;2.32;81.46
72380;SHT30;60354;47.798;12.472;2023-03-01T17:24:02;2.38;81.62
72380;SHT30;60354;47.798;12.472;2023-03-01T17:26:28;2.41;81.33
72380;SHT30;60354;47.798;12.472;2023-03-01T17:28:55;2.26;81.88
72380;SHT30;60354;47.798;12.472;2023-03-01T17:31:21;2.15;81.68
72380;SHT30;60354;47.798;12.472;2023-03-01T17:33:47;2.06;82.52
72380;SHT30;60354;47.798;12.472;2023-03-01T17:36:14;1.85;83.17
72380;SHT30;60354;47.798;12.472;2023-03-01T17:38:40;1.76;83.70
72380;SHT30;60354;47.798;12.472;2023-03-01T17:41:06;1.67;83.92
72380;SHT30;60354;47.798;12.472;2023-03-01T17:43:32;1.83;83.54
72380;SHT30;60354;47.798;12.472;2023-03-01T17:45:59;2.32;87.43
72380;SHT30;60354;47.798;12.472;2023-03-01T17:48:25;2.20;82.48
72380;SHT30;60354;47.798;12.472;2023-03-01T17:50:50;2.16;81.57
72380;SHT30;60354;47.798;12.472;2023-03-01T17:53:16;2.10;81.80
72380;SHT30;60354;47.798;12.472;2023-03-01T17:55:42;1.96;81.89
72380;SHT30;60354;47.798;12.472;2023-03-01T17:58:09;2.03;81.80
72380;SHT30;60354;47.798;12.472;2023-03-01T18:00:36;1.96;81.94
72380;SHT30;60354;47.798;12.472;2023-03-01T18:03:02;1.92;81.70
72380;SHT30;60354;47.798;12.472;2023-03-01T18:05:31;1.91;81.80
72380;SHT30;60354;47.798;12.472;2023-03-01T18:07:57;1.72;81.91
72380;SHT30;60354;47.798;12.472;2023-03-01T18:10:23;1.65;82.39
72380;SHT30;60354;47.798;12.472;2023-03-01T18:12:50;1.58;82.48
72380;SHT30;60354;47.798;12.472;2023-03-01T18:15:15;1.62;82.88
72380;SHT30;60354;47.798;12.472;2023-03-01T18:17:41;1.51;82.53
72380;SHT30;60354;47.798;12.472;2023-03-01T18:20:07;1.27;83.17
72380;SHT30;60354;47.798;12.472;2023-03-01T18:22:32;1.27;83.21
72380;SHT30;60354;47.798;12.472;2023-03-01T18:24:58;1.23;83.38
72380;SHT30;60354;47.798;12.472;2023-03-01T18:27:24;1.03;84.17
72380;SHT30;60354;47.798;12.472;2023-03-01T18:29:49;1.12;83.86
72380;SHT30;60354;47.798;12.472;2023-03-01T18:32:15;0.99;84.21
72380;SHT30;60354;47.798;12.472;2023-03-01T18:34:41;1.04;84.07
72380;SHT30;60354;47.798;12.472;2023-03-01T18:37:06;1.03;84.06
72380;SHT30;60354;47.798;12.472;2023-03-01T18:39:32;1.03;83.31
72380;SHT30;60354;47.798;12.472;2023-03-01T18:41:58;0.93;84.00
72380;SHT30;60354;47.798;12.472;2023-03-01T18:44:23;1.03;83.08
72380;SHT30;60354;47.798;12.472;2023-03-01T18:46:50;0.97;84.12